sensor_id;sensor_type;location;lat;lon;timestamp;P1;durP1;ratioP1;P2;durP2;ratioP2
40044;SDS011;25735;48.122;11.422;2022-10-30T00:02:12;5.93;;;3.63;;
40044;SDS011;25735;48.122;11.422;2022-10-30T00:04:38;11.05;;;4.43;;
40044;SDS011;25735;48.122;11.422;2022-10-30T00:07:03;10.52;;;4.40;;
40044;SDS011;25735;48.122;11.422;2022-10-30T00:09:28;11.25;;;4.47;;
40044;SDS011;25735;48.122;11.422;2022-10-30T00:11:53;8.68;;;4.25;;
40044;SDS011;25735;48.122;11.422;2022-10-30T00:14:19;7.70;;;3.95;;
40044;SDS011;25735;48.122;11.422;2022-10-30T00:16:44;8.75;;;4.10;;
40044;SDS011;25735;48.122;11.422;2022-10-30T00:19:09;12.18;;;4.10;;
40044;SDS011;25735;48.122;11.422;2022-10-30T00:21:34;8.10;;;3.05;;
40044;SDS011;25735;48.122;11.422;2022-10-30T00:24:00;11.63;;;3.65;;
40044;SDS011;25735;48.122;11.422;2022-10-30T00:26:25;9.55;;;3.58;;
40044;SDS011;25735;48.122;11.422;2022-10-30T00:28:52;8.55;;;3.60;;
40044;SDS011;25735;48.122;11.422;2022-10-30T00:31:19;10.88;;;3.78;;
40044;SDS011;25735;48.122;11.422;2022-10-30T00:33:52;11.30;;;3.83;;
40044;SDS011;25735;48.122;11.422;2022-10-30T00:36:18;7.65;;;3.10;;
40044;SDS011;25735;48.122;11.422;2022-10-30T00:38:44;10.98;;;4.00;;
40044;SDS011;25735;48.122;11.422;2022-10-30T00:41:13;6.68;;;3.03;;
40044;SDS011;25735;48.122;11.422;2022-10-30T00:43:39;12.20;;;4.07;;
40044;SDS011;25735;48.122;11.422;2022-10-30T00:48:53;11.60;;;4.68;;
40044;SDS011;25735;48.122;11.422;2022-10-30T00:51:22;9.90;;;4.05;;
40044;SDS011;25735;48.122;11.422;2022-10-30T00:53:47;8.65;;;3.33;;
40044;SDS011;25735;48.122;11.422;2022-10-30T00:56:14;8.80;;;5.53;;
40044;SDS011;25735;48.122;11.422;2022-10-30T00:58:47;7.45;;;3.33;;
40044;SDS011;25735;48.122;11.422;2022-10-30T01:01:17;5.40;;;3.45;;
40044;SDS011;25735;48.122;11.422;2022-10-30T01:03:46;8.80;;;3.60;;
40044;SDS011;25735;48.122;11.422;2022-10-30T01:06:14;9.57;;;3.45;;
40044;SDS011;25735;48.122;11.422;2022-10-30T01:08:40;7.47;;;3.42;;
40044;SDS011;25735;48.122;11.422;2022-10-30T01:11:07;6.82;;;3.63;;
40044;SDS011;25735;48.122;11.422;2022-10-30T01:13:33;8.40;;;3.13;;
40044;SDS011;25735;48.122;11.422;2022-10-30T01:18:40;10.13;;;3.45;;
40044;SDS011;25735;48.122;11.422;2022-10-30T01:26:59;6.97;;;2.92;;
40044;SDS011;25735;48.122;11.422;2022-10-30T01:29:54;10.32;;;3.95;;
40044;SDS011;25735;48.122;11.422;2022-10-30T01:35:11;9.95;;;3.83;;
40044;SDS011;25735;48.122;11.422;2022-10-30T01:37:44;7.97;;;3.65;;
40044;SDS011;25735;48.122;11.422;2022-10-30T01:40:16;12.18;;;3.78;;
40044;SDS011;25735;48.122;11.422;2022-10-30T01:42:52;8.27;;;4.25;;
40044;SDS011;25735;48.122;11.422;2022-10-30T01:58:26;12.82;;;5.10;;
40044;SDS011;25735;48.122;11.422;2022-10-30T02:00:57;9.20;;;4.90;;
40044;SDS011;25735;48.122;11.422;2022-10-30T02:03:23;12.07;;;4.97;;
40044;SDS011;25735;48.122;11.422;2022-10-30T02:05:51;15.13;;;5.55;;
40044;SDS011;25735;48.122;11.422;2022-10-30T02:08:17;7.30;;;4.00;;
40044;SDS011;25735;48.122;11.422;2022-10-30T02:10:44;14.77;;;5.63;;
40044;SDS011;25735;48.122;11.422;2022-10-30T02:13:11;10.52;;;4.80;;
40044;SDS011;25735;48.122;11.422;2022-10-30T02:15:37;7.90;;;4.50;;
40044;SDS011;25735;48.122;11.422;2022-10-30T02:18:03;13.15;;;4.97;;
40044;SDS011;25735;48.122;11.422;2022-10-30T02:20:29;9.85;;;4.00;;
40044;SDS011;25735;48.122;11.422;2022-10-30T02:22:54;10.07;;;4.05;;
40044;SDS011;25735;48.122;11.422;2022-10-30T02:25:20;11.45;;;5.07;;
40044;SDS011;25735;48.122;11.422;2022-10-30T02:27:45;15.63;;;5.40;;
40044;SDS011;25735;48.122;11.422;2022-10-30T02:30:11;13.30;;;5.25;;
40044;SDS011;25735;48.122;11.422;2022-10-30T02:32:36;12.55;;;5.25;;
40044;SDS011;25735;48.122;11.422;2022-10-30T02:35:02;8.68;;;4.57;;
40044;SDS011;25735;48.122;11.422;2022-10-30T02:37:29;17.30;;;8.48;;
40044;SDS011;25735;48.122;11.422;2022-10-30T02:39:56;32.65;;;15.30;;
40044;SDS011;25735;48.122;11.422;2022-10-30T02:42:21;26.02;;;11.48;;
40044;SDS011;25735;48.122;11.422;2022-10-30T02:44:47;12.45;;;6.30;;
40044;SDS011;25735;48.122;11.422;2022-10-30T02:47:12;12.80;;;7.00;;
40044;SDS011;25735;48.122;11.422;2022-10-30T02:49:38;9.07;;;5.22;;
40044;SDS011;25735;48.122;11.422;2022-10-30T02:52:05;11.75;;;4.95;;
40044;SDS011;25735;48.122;11.422;2022-10-30T02:54:31;10.57;;;5.90;;
40044;SDS011;25735;48.122;11.422;2022-10-30T02:56:56;12.38;;;5.13;;
40044;SDS011;25735;48.122;11.422;2022-10-30T02:59:21;13.35;;;4.93;;
40044;SDS011;25735;48.122;11.422;2022-10-30T03:01:47;12.52;;;5.70;;
40044;SDS011;25735;48.122;11.422;2022-10-30T03:04:12;13.57;;;5.65;;
40044;SDS011;25735;48.122;11.422;2022-10-30T03:06:37;8.57;;;5.40;;
40044;SDS011;25735;48.122;11.422;2022-10-30T03:09:03;11.80;;;4.90;;
40044;SDS011;25735;48.122;11.422;2022-10-30T03:11:28;13.32;;;5.43;;
40044;SDS011;25735;48.122;11.422;2022-10-30T03:13:53;14.00;;;5.85;;
40044;SDS011;25735;48.122;11.422;2022-10-30T03:16:20;7.97;;;4.18;;
40044;SDS011;25735;48.122;11.422;2022-10-30T03:18:47;15.82;;;4.63;;
40044;SDS011;25735;48.122;11.422;2022-10-30T03:21:14;9.65;;;4.75;;
40044;SDS011;25735;48.122;11.422;2022-10-30T03:23:42;13.73;;;5.30;;
40044;SDS011;25735;48.122;11.422;2022-10-30T03:26:07;9.98;;;4.97;;
40044;SDS011;25735;48.122;11.422;2022-10-30T03:28:32;13.75;;;4.20;;
40044;SDS011;25735;48.122;11.422;2022-10-30T03:30:59;8.00;;;4.15;;
40044;SDS011;25735;48.122;11.422;2022-10-30T03:33:26;12.77;;;5.38;;
40044;SDS011;25735;48.122;11.422;2022-10-30T03:35:51;11.10;;;5.07;;
40044;SDS011;25735;48.122;11.422;2022-10-30T03:38:16;23.65;;;12.82;;
40044;SDS011;25735;48.122;11.422;2022-10-30T03:40:42;15.15;;;11.05;;
40044;SDS011;25735;48.122;11.422;2022-10-30T03:43:07;16.33;;;10.73;;
40044;SDS011;25735;48.122;11.422;2022-10-30T03:45:33;17.35;;;9.63;;
40044;SDS011;25735;48.122;11.422;2022-10-30T03:47:59;20.05;;;8.23;;
40044;SDS011;25735;48.122;11.422;2022-10-30T03:50:25;14.18;;;7.93;;
40044;SDS011;25735;48.122;11.422;2022-10-30T03:52:52;11.82;;;5.47;;
40044;SDS011;25735;48.122;11.422;2022-10-30T03:55:21;9.30;;;3.92;;
40044;SDS011;25735;48.122;11.422;2022-10-30T03:57:46;9.38;;;3.80;;
40044;SDS011;25735;48.122;11.422;2022-10-30T04:00:12;12.68;;;3.55;;
40044;SDS011;25735;48.122;11.422;2022-10-30T04:02:38;10.77;;;3.30;;
40044;SDS011;25735;48.122;11.422;2022-10-30T04:05:03;7.30;;;3.00;;
40044;SDS011;25735;48.122;11.422;2022-10-30T04:07:29;10.20;;;3.55;;
40044;SDS011;25735;48.122;11.422;2022-10-30T04:09:54;10.25;;;3.53;;
40044;SDS011;25735;48.122;11.422;2022-10-30T04:12:20;13.20;;;4.35;;
40044;SDS011;25735;48.122;11.422;2022-10-30T04:14:45;6.05;;;3.63;;
40044;SDS011;25735;48.122;11.422;2022-10-30T04:17:10;10.15;;;3.40;;
40044;SDS011;25735;48.122;11.422;2022-10-30T04:19:36;10.50;;;3.55;;
40044;SDS011;25735;48.122;11.422;2022-10-30T04:22:01;9.25;;;3.88;;
40044;SDS011;25735;48.122;11.422;2022-10-30T04:24:26;9.25;;;3.83;;
40044;SDS011;25735;48.122;11.422;2022-10-30T04:26:51;11.45;;;4.05;;
40044;SDS011;25735;48.122;11.422;2022-10-30T04:29:17;17.25;;;7.25;;
40044;SDS011;25735;48.122;11.422;2022-10-30T04:31:42;17.80;;;7.72;;
40044;SDS011;25735;48.122;11.422;2022-10-30T04:34:07;16.30;;;8.23;;
40044;SDS011;25735;48.122;11.422;2022-10-30T04:36:33;24.67;;;15.00;;
40044;SDS011;25735;48.122;11.422;2022-10-30T04:38:58;19.80;;;12.77;;
40044;SDS011;25735;48.122;11.422;2022-10-30T04:41:24;19.08;;;10.73;;
40044;SDS011;25735;48.122;11.422;2022-10-30T04:43:50;22.27;;;11.48;;
40044;SDS011;25735;48.122;11.422;2022-10-30T04:46:16;23.77;;;10.65;;
40044;SDS011;25735;48.122;11.422;2022-10-30T04:48:41;9.90;;;5.60;;
40044;SDS011;25735;48.122;11.422;2022-10-30T04:51:07;13.23;;;7.15;;
40044;SDS011;25735;48.122;11.422;2022-10-30T04:53:33;14.82;;;8.32;;
40044;SDS011;25735;48.122;11.422;2022-10-30T04:55:59;12.70;;;8.20;;
40044;SDS011;25735;48.122;11.422;2022-10-30T04:58:24;13.52;;;5.93;;
40044;SDS011;25735;48.122;11.422;2022-10-30T05:00:49;9.25;;;4.03;;
40044;SDS011;25735;48.122;11.422;2022-10-30T05:03:16;11.38;;;4.43;;
40044;SDS011;25735;48.122;11.422;2022-10-30T05:05:45;6.82;;;3.67;;
40044;SDS011;25735;48.122;11.422;2022-10-30T05:08:12;9.02;;;3.50;;
40044;SDS011;25735;48.122;11.422;2022-10-30T05:10:38;9.02;;;3.40;;
40044;SDS011;25735;48.122;11.422;2022-10-30T05:13:04;5.88;;;3.03;;
40044;SDS011;25735;48.122;11.422;2022-10-30T05:15:29;6.45;;;3.20;;
40044;SDS011;25735;48.122;11.422;2022-10-30T05:17:55;6.63;;;2.47;;
40044;SDS011;25735;48.122;11.422;2022-10-30T05:20:20;12.73;;;3.47;;
40044;SDS011;25735;48.122;11.422;2022-10-30T05:22:52;6.93;;;3.17;;
40044;SDS011;25735;48.122;11.422;2022-10-30T05:25:18;7.40;;;2.55;;
40044;SDS011;25735;48.122;11.422;2022-10-30T05:27:44;10.25;;;3.33;;
40044;SDS011;25735;48.122;11.422;2022-10-30T05:30:09;13.00;;;3.85;;
40044;SDS011;25735;48.122;11.422;2022-10-30T05:32:34;6.72;;;3.08;;
40044;SDS011;25735;48.122;11.422;2022-10-30T05:35:00;8.80;;;3.28;;
40044;SDS011;25735;48.122;11.422;2022-10-30T05:37:25;11.10;;;3.90;;
40044;SDS011;25735;48.122;11.422;2022-10-30T05:39:50;10.80;;;4.28;;
40044;SDS011;25735;48.122;11.422;2022-10-30T05:42:16;7.63;;;3.58;;
40044;SDS011;25735;48.122;11.422;2022-10-30T05:44:41;9.73;;;3.75;;
40044;SDS011;25735;48.122;11.422;2022-10-30T05:47:06;11.93;;;3.92;;
40044;SDS011;25735;48.122;11.422;2022-10-30T05:49:31;12.35;;;3.88;;
40044;SDS011;25735;48.122;11.422;2022-10-30T05:51:57;8.25;;;3.58;;
40044;SDS011;25735;48.122;11.422;2022-10-30T05:54:22;13.98;;;3.17;;
40044;SDS011;25735;48.122;11.422;2022-10-30T05:56:47;7.38;;;2.70;;
40044;SDS011;25735;48.122;11.422;2022-10-30T05:59:13;11.45;;;3.42;;
40044;SDS011;25735;48.122;11.422;2022-10-30T06:01:38;8.77;;;3.17;;
40044;SDS011;25735;48.122;11.422;2022-10-30T06:04:03;15.15;;;3.70;;
40044;SDS011;25735;48.122;11.422;2022-10-30T06:06:29;8.13;;;3.63;;
40044;SDS011;25735;48.122;11.422;2022-10-30T06:08:54;12.57;;;3.40;;
40044;SDS011;25735;48.122;11.422;2022-10-30T06:11:19;13.05;;;3.47;;
40044;SDS011;25735;48.122;11.422;2022-10-30T06:13:46;12.50;;;3.83;;
40044;SDS011;25735;48.122;11.422;2022-10-30T06:16:12;14.38;;;4.90;;
40044;SDS011;25735;48.122;11.422;2022-10-30T06:18:37;13.38;;;3.92;;
40044;SDS011;25735;48.122;11.422;2022-10-30T06:21:02;11.98;;;3.22;;
40044;SDS011;25735;48.122;11.422;2022-10-30T06:23:28;9.20;;;2.72;;
40044;SDS011;25735;48.122;11.422;2022-10-30T06:25:53;9.48;;;3.17;;
40044;SDS011;25735;48.122;11.422;2022-10-30T06:28:18;12.07;;;3.38;;
40044;SDS011;25735;48.122;11.422;2022-10-30T06:30:44;5.35;;;2.30;;
40044;SDS011;25735;48.122;11.422;2022-10-30T06:33:09;13.52;;;4.93;;
40044;SDS011;25735;48.122;11.422;2022-10-30T06:35:34;10.27;;;4.20;;
40044;SDS011;25735;48.122;11.422;2022-10-30T06:38:00;11.38;;;5.32;;
40044;SDS011;25735;48.122;11.422;2022-10-30T06:40:25;9.05;;;4.25;;
40044;SDS011;25735;48.122;11.422;2022-10-30T06:42:52;11.48;;;3.63;;
40044;SDS011;25735;48.122;11.422;2022-10-30T06:45:18;9.75;;;3.05;;
40044;SDS011;25735;48.122;11.422;2022-10-30T06:47:45;13.20;;;5.22;;
40044;SDS011;25735;48.122;11.422;2022-10-30T06:50:12;13.40;;;7.80;;
40044;SDS011;25735;48.122;11.422;2022-10-30T06:52:38;9.40;;;5.57;;
40044;SDS011;25735;48.122;11.422;2022-10-30T06:55:04;9.80;;;4.68;;
40044;SDS011;25735;48.122;11.422;2022-10-30T06:57:30;9.88;;;4.65;;
40044;SDS011;25735;48.122;11.422;2022-10-30T06:59:55;12.60;;;3.63;;
40044;SDS011;25735;48.122;11.422;2022-10-30T07:02:21;7.82;;;3.55;;
40044;SDS011;25735;48.122;11.422;2022-10-30T07:04:46;11.30;;;4.38;;
40044;SDS011;25735;48.122;11.422;2022-10-30T07:07:14;9.13;;;3.55;;
40044;SDS011;25735;48.122;11.422;2022-10-30T07:09:40;11.18;;;5.30;;
40044;SDS011;25735;48.122;11.422;2022-10-30T07:12:06;8.48;;;5.03;;
40044;SDS011;25735;48.122;11.422;2022-10-30T07:14:32;13.27;;;4.45;;
40044;SDS011;25735;48.122;11.422;2022-10-30T07:16:57;11.27;;;4.32;;
40044;SDS011;25735;48.122;11.422;2022-10-30T07:19:22;8.82;;;3.50;;
40044;SDS011;25735;48.122;11.422;2022-10-30T07:21:48;10.65;;;3.08;;
40044;SDS011;25735;48.122;11.422;2022-10-30T07:24:13;11.55;;;4.65;;
40044;SDS011;25735;48.122;11.422;2022-10-30T07:26:39;8.40;;;2.60;;
40044;SDS011;25735;48.122;11.422;2022-10-30T07:29:04;8.43;;;2.97;;
40044;SDS011;25735;48.122;11.422;2022-10-30T07:31:30;7.95;;;2.80;;
40044;SDS011;25735;48.122;11.422;2022-10-30T07:33:55;8.43;;;2.85;;
40044;SDS011;25735;48.122;11.422;2022-10-30T07:36:21;8.57;;;2.58;;
40044;SDS011;25735;48.122;11.422;2022-10-30T07:38:47;8.05;;;3.20;;
40044;SDS011;25735;48.122;11.422;2022-10-30T07:41:13;9.77;;;3.60;;
40044;SDS011;25735;48.122;11.422;2022-10-30T07:43:38;10.20;;;3.58;;
40044;SDS011;25735;48.122;11.422;2022-10-30T07:46:04;10.88;;;3.20;;
40044;SDS011;25735;48.122;11.422;2022-10-30T07:48:29;8.60;;;3.15;;
40044;SDS011;25735;48.122;11.422;2022-10-30T07:50:54;11.30;;;3.13;;
40044;SDS011;25735;48.122;11.422;2022-10-30T07:53:20;16.10;;;3.78;;
40044;SDS011;25735;48.122;11.422;2022-10-30T07:55:45;7.65;;;2.78;;
40044;SDS011;25735;48.122;11.422;2022-10-30T07:58:10;7.88;;;3.00;;
40044;SDS011;25735;48.122;11.422;2022-10-30T08:00:36;8.32;;;2.40;;
40044;SDS011;25735;48.122;11.422;2022-10-30T08:03:01;11.13;;;2.92;;
40044;SDS011;25735;48.122;11.422;2022-10-30T08:05:26;6.93;;;2.58;;
40044;SDS011;25735;48.122;11.422;2022-10-30T08:07:51;7.95;;;2.47;;
40044;SDS011;25735;48.122;11.422;2022-10-30T08:10:17;5.07;;;2.15;;
40044;SDS011;25735;48.122;11.422;2022-10-30T08:12:42;14.25;;;3.13;;
40044;SDS011;25735;48.122;11.422;2022-10-30T08:15:09;8.85;;;2.38;;
40044;SDS011;25735;48.122;11.422;2022-10-30T08:17:42;5.90;;;2.08;;
40044;SDS011;25735;48.122;11.422;2022-10-30T08:20:10;8.15;;;2.42;;
40044;SDS011;25735;48.122;11.422;2022-10-30T08:22:46;12.88;;;3.13;;
40044;SDS011;25735;48.122;11.422;2022-10-30T08:25:12;8.88;;;2.47;;
40044;SDS011;25735;48.122;11.422;2022-10-30T08:27:38;9.48;;;3.22;;
40044;SDS011;25735;48.122;11.422;2022-10-30T08:30:03;8.23;;;2.60;;
40044;SDS011;25735;48.122;11.422;2022-10-30T08:32:29;9.95;;;2.30;;
40044;SDS011;25735;48.122;11.422;2022-10-30T08:34:54;8.85;;;3.08;;
40044;SDS011;25735;48.122;11.422;2022-10-30T08:37:20;8.02;;;2.22;;
40044;SDS011;25735;48.122;11.422;2022-10-30T08:39:45;8.55;;;2.10;;
40044;SDS011;25735;48.122;11.422;2022-10-30T08:42:10;7.03;;;2.40;;
40044;SDS011;25735;48.122;11.422;2022-10-30T08:44:35;7.05;;;2.40;;
40044;SDS011;25735;48.122;11.422;2022-10-30T08:47:01;10.35;;;2.70;;
40044;SDS011;25735;48.122;11.422;2022-10-30T08:49:26;7.97;;;2.42;;
40044;SDS011;25735;48.122;11.422;2022-10-30T08:51:51;7.38;;;2.40;;
40044;SDS011;25735;48.122;11.422;2022-10-30T08:54:16;4.18;;;2.13;;
40044;SDS011;25735;48.122;11.422;2022-10-30T08:56:42;6.55;;;2.58;;
40044;SDS011;25735;48.122;11.422;2022-10-30T08:59:07;8.82;;;3.25;;
40044;SDS011;25735;48.122;11.422;2022-10-30T09:01:32;7.57;;;3.17;;
40044;SDS011;25735;48.122;11.422;2022-10-30T09:03:58;7.45;;;2.30;;
40044;SDS011;25735;48.122;11.422;2022-10-30T09:06:23;7.90;;;2.38;;
40044;SDS011;25735;48.122;11.422;2022-10-30T09:08:48;12.57;;;2.95;;
40044;SDS011;25735;48.122;11.422;2022-10-30T09:11:13;9.75;;;2.72;;
40044;SDS011;25735;48.122;11.422;2022-10-30T09:13:39;7.65;;;2.25;;
40044;SDS011;25735;48.122;11.422;2022-10-30T09:16:04;10.50;;;3.05;;
40044;SDS011;25735;48.122;11.422;2022-10-30T09:18:30;8.02;;;2.85;;
40044;SDS011;25735;48.122;11.422;2022-10-30T09:20:55;6.95;;;2.35;;
40044;SDS011;25735;48.122;11.422;2022-10-30T09:23:20;7.32;;;2.78;;
40044;SDS011;25735;48.122;11.422;2022-10-30T09:25:46;6.15;;;2.08;;
40044;SDS011;25735;48.122;11.422;2022-10-30T09:28:11;10.90;;;2.53;;
40044;SDS011;25735;48.122;11.422;2022-10-30T09:30:36;11.38;;;3.13;;
40044;SDS011;25735;48.122;11.422;2022-10-30T09:33:02;15.45;;;2.83;;
40044;SDS011;25735;48.122;11.422;2022-10-30T09:35:27;11.52;;;2.53;;
40044;SDS011;25735;48.122;11.422;2022-10-30T09:37:53;10.07;;;2.58;;
40044;SDS011;25735;48.122;11.422;2022-10-30T09:51:47;8.50;;;2.83;;
40044;SDS011;25735;48.122;11.422;2022-10-30T10:02:45;12.38;;;2.85;;
40044;SDS011;25735;48.122;11.422;2022-10-30T10:07:54;10.73;;;2.30;;
40044;SDS011;25735;48.122;11.422;2022-10-30T10:10:26;7.95;;;2.55;;
40044;SDS011;25735;48.122;11.422;2022-10-30T10:13:01;7.75;;;2.35;;
40044;SDS011;25735;48.122;11.422;2022-10-30T10:15:32;12.68;;;3.28;;
40044;SDS011;25735;48.122;11.422;2022-10-30T10:18:03;8.13;;;2.50;;
40044;SDS011;25735;48.122;11.422;2022-10-30T10:20:38;8.88;;;3.85;;
40044;SDS011;25735;48.122;11.422;2022-10-30T10:23:16;6.05;;;2.22;;
40044;SDS011;25735;48.122;11.422;2022-10-30T10:25:55;12.52;;;3.45;;
40044;SDS011;25735;48.122;11.422;2022-10-30T10:34:15;10.77;;;3.63;;
40044;SDS011;25735;48.122;11.422;2022-10-30T10:48:34;14.23;;;3.38;;
40044;SDS011;25735;48.122;11.422;2022-10-30T10:51:12;7.35;;;2.90;;
40044;SDS011;25735;48.122;11.422;2022-10-30T10:53:42;9.10;;;2.90;;
40044;SDS011;25735;48.122;11.422;2022-10-30T10:56:10;8.60;;;2.40;;
40044;SDS011;25735;48.122;11.422;2022-10-30T10:58:45;9.38;;;3.00;;
40044;SDS011;25735;48.122;11.422;2022-10-30T11:01:17;8.80;;;2.63;;
40044;SDS011;25735;48.122;11.422;2022-10-30T11:06:20;9.25;;;2.75;;
40044;SDS011;25735;48.122;11.422;2022-10-30T11:08:51;7.97;;;2.60;;
40044;SDS011;25735;48.122;11.422;2022-10-30T11:11:18;10.18;;;2.90;;
40044;SDS011;25735;48.122;11.422;2022-10-30T11:13:43;10.63;;;4.20;;
40044;SDS011;25735;48.122;11.422;2022-10-30T11:16:17;8.48;;;2.63;;
40044;SDS011;25735;48.122;11.422;2022-10-30T11:18:52;7.95;;;2.75;;
40044;SDS011;25735;48.122;11.422;2022-10-30T11:21:21;10.20;;;2.85;;
40044;SDS011;25735;48.122;11.422;2022-10-30T11:23:48;9.80;;;2.90;;
40044;SDS011;25735;48.122;11.422;2022-10-30T11:31:32;12.38;;;3.08;;
40044;SDS011;25735;48.122;11.422;2022-10-30T11:34:12;12.88;;;3.47;;
40044;SDS011;25735;48.122;11.422;2022-10-30T11:36:40;8.35;;;2.78;;
40044;SDS011;25735;48.122;11.422;2022-10-30T11:39:10;14.25;;;3.17;;
40044;SDS011;25735;48.122;11.422;2022-10-30T11:41:41;7.13;;;2.67;;
40044;SDS011;25735;48.122;11.422;2022-10-30T11:44:07;8.38;;;2.83;;
40044;SDS011;25735;48.122;11.422;2022-10-30T11:46:35;6.93;;;2.35;;
40044;SDS011;25735;48.122;11.422;2022-10-30T11:49:01;7.07;;;2.67;;
40044;SDS011;25735;48.122;11.422;2022-10-30T11:51:33;6.63;;;2.88;;
40044;SDS011;25735;48.122;11.422;2022-10-30T11:54:01;7.20;;;3.00;;
40044;SDS011;25735;48.122;11.422;2022-10-30T11:56:27;7.65;;;2.80;;
40044;SDS011;25735;48.122;11.422;2022-10-30T11:58:56;11.10;;;3.08;;
40044;SDS011;25735;48.122;11.422;2022-10-30T12:01:26;7.63;;;3.00;;
40044;SDS011;25735;48.122;11.422;2022-10-30T12:03:54;7.03;;;2.53;;
40044;SDS011;25735;48.122;11.422;2022-10-30T12:11:43;7.85;;;2.78;;
40044;SDS011;25735;48.122;11.422;2022-10-30T12:14:27;7.53;;;2.53;;
40044;SDS011;25735;48.122;11.422;2022-10-30T12:16:54;9.70;;;3.15;;
40044;SDS011;25735;48.122;11.422;2022-10-30T12:19:21;14.55;;;3.13;;
40044;SDS011;25735;48.122;11.422;2022-10-30T12:21:49;13.40;;;3.17;;
40044;SDS011;25735;48.122;11.422;2022-10-30T12:24:19;9.15;;;2.92;;
40044;SDS011;25735;48.122;11.422;2022-10-30T12:26:54;11.13;;;3.13;;
40044;SDS011;25735;48.122;11.422;2022-10-30T12:29:21;8.60;;;2.90;;
40044;SDS011;25735;48.122;11.422;2022-10-30T12:31:54;8.48;;;2.83;;
40044;SDS011;25735;48.122;11.422;2022-10-30T12:34:43;11.07;;;2.38;;
40044;SDS011;25735;48.122;11.422;2022-10-30T12:37:18;10.50;;;2.85;;
40044;SDS011;25735;48.122;11.422;2022-10-30T12:39:59;10.38;;;2.50;;
40044;SDS011;25735;48.122;11.422;2022-10-30T12:42:30;8.07;;;3.38;;
40044;SDS011;25735;48.122;11.422;2022-10-30T12:45:15;6.82;;;2.58;;
40044;SDS011;25735;48.122;11.422;2022-10-30T12:47:53;7.90;;;3.08;;
40044;SDS011;25735;48.122;11.422;2022-10-30T12:50:31;4.70;;;2.05;;
40044;SDS011;25735;48.122;11.422;2022-10-30T12:53:17;6.47;;;2.80;;
40044;SDS011;25735;48.122;11.422;2022-10-30T12:55:53;11.80;;;3.08;;
40044;SDS011;25735;48.122;11.422;2022-10-30T13:03:35;10.85;;;3.22;;
40044;SDS011;25735;48.122;11.422;2022-10-30T13:06:06;10.70;;;3.13;;
40044;SDS011;25735;48.122;11.422;2022-10-30T13:13:57;8.80;;;2.38;;
40044;SDS011;25735;48.122;11.422;2022-10-30T13:16:26;10.60;;;3.10;;
40044;SDS011;25735;48.122;11.422;2022-10-30T13:18:57;7.20;;;2.70;;
40044;SDS011;25735;48.122;11.422;2022-10-30T13:21:38;8.60;;;3.13;;
40044;SDS011;25735;48.122;11.422;2022-10-30T13:24:26;10.75;;;2.80;;
40044;SDS011;25735;48.122;11.422;2022-10-30T13:35:20;7.50;;;2.92;;
40044;SDS011;25735;48.122;11.422;2022-10-30T13:40:43;10.82;;;3.17;;
40044;SDS011;25735;48.122;11.422;2022-10-30T13:45:54;7.75;;;2.42;;
40044;SDS011;25735;48.122;11.422;2022-10-30T13:51:48;8.02;;;2.75;;
40044;SDS011;25735;48.122;11.422;2022-10-30T13:56:52;9.25;;;2.75;;
40044;SDS011;25735;48.122;11.422;2022-10-30T14:02:01;6.53;;;2.80;;
40044;SDS011;25735;48.122;11.422;2022-10-30T14:05:18;7.95;;;2.55;;
40044;SDS011;25735;48.122;11.422;2022-10-30T14:07:29;12.48;;;3.40;;
40044;SDS011;25735;48.122;11.422;2022-10-30T14:20:38;9.67;;;3.17;;
40044;SDS011;25735;48.122;11.422;2022-10-30T14:25:38;8.10;;;2.60;;
40044;SDS011;25735;48.122;11.422;2022-10-30T14:28:04;10.90;;;2.88;;
40044;SDS011;25735;48.122;11.422;2022-10-30T14:30:33;10.75;;;3.95;;
40044;SDS011;25735;48.122;11.422;2022-10-30T14:32:59;8.85;;;2.72;;
40044;SDS011;25735;48.122;11.422;2022-10-30T14:35:28;8.75;;;3.03;;
40044;SDS011;25735;48.122;11.422;2022-10-30T14:38:06;12.73;;;3.53;;
40044;SDS011;25735;48.122;11.422;2022-10-30T14:43:17;6.07;;;2.83;;
40044;SDS011;25735;48.122;11.422;2022-10-30T14:45:56;8.32;;;2.50;;
40044;SDS011;25735;48.122;11.422;2022-10-30T14:53:43;7.28;;;2.47;;
40044;SDS011;25735;48.122;11.422;2022-10-30T14:58:40;7.30;;;2.63;;
40044;SDS011;25735;48.122;11.422;2022-10-30T15:06:10;9.73;;;2.53;;
40044;SDS011;25735;48.122;11.422;2022-10-30T15:12:20;8.60;;;3.28;;
40044;SDS011;25735;48.122;11.422;2022-10-30T15:14:37;11.07;;;4.78;;
40044;SDS011;25735;48.122;11.422;2022-10-30T15:17:11;8.48;;;4.50;;
40044;SDS011;25735;48.122;11.422;2022-10-30T15:19:50;9.35;;;4.07;;
40044;SDS011;25735;48.122;11.422;2022-10-30T15:22:16;8.52;;;3.80;;
40044;SDS011;25735;48.122;11.422;2022-10-30T15:24:45;7.45;;;3.10;;
40044;SDS011;25735;48.122;11.422;2022-10-30T15:27:15;8.93;;;3.78;;
40044;SDS011;25735;48.122;11.422;2022-10-30T15:29:43;9.05;;;3.67;;
40044;SDS011;25735;48.122;11.422;2022-10-30T15:32:15;8.00;;;3.45;;
40044;SDS011;25735;48.122;11.422;2022-10-30T15:35:19;10.90;;;3.70;;
40044;SDS011;25735;48.122;11.422;2022-10-30T15:40:22;8.27;;;3.15;;
40044;SDS011;25735;48.122;11.422;2022-10-30T15:42:48;8.85;;;3.78;;
40044;SDS011;25735;48.122;11.422;2022-10-30T15:45:20;10.88;;;4.10;;
40044;SDS011;25735;48.122;11.422;2022-10-30T15:47:48;6.18;;;3.13;;
40044;SDS011;25735;48.122;11.422;2022-10-30T15:50:21;6.72;;;3.33;;
40044;SDS011;25735;48.122;11.422;2022-10-30T15:52:46;8.57;;;4.10;;
40044;SDS011;25735;48.122;11.422;2022-10-30T15:55:13;6.70;;;3.00;;
40044;SDS011;25735;48.122;11.422;2022-10-30T15:57:42;8.32;;;3.28;;
40044;SDS011;25735;48.122;11.422;2022-10-30T16:00:18;9.70;;;3.50;;
40044;SDS011;25735;48.122;11.422;2022-10-30T16:03:02;10.40;;;3.05;;
40044;SDS011;25735;48.122;11.422;2022-10-30T16:05:29;9.13;;;3.08;;
40044;SDS011;25735;48.122;11.422;2022-10-30T16:07:56;9.77;;;3.33;;
40044;SDS011;25735;48.122;11.422;2022-10-30T16:10:24;11.43;;;3.45;;
40044;SDS011;25735;48.122;11.422;2022-10-30T16:12:51;11.18;;;3.38;;
40044;SDS011;25735;48.122;11.422;2022-10-30T16:18:05;10.07;;;4.07;;
40044;SDS011;25735;48.122;11.422;2022-10-30T16:20:33;14.15;;;4.40;;
40044;SDS011;25735;48.122;11.422;2022-10-30T16:22:59;9.13;;;3.67;;
40044;SDS011;25735;48.122;11.422;2022-10-30T16:25:25;10.40;;;3.20;;
40044;SDS011;25735;48.122;11.422;2022-10-30T16:27:51;10.05;;;4.20;;
40044;SDS011;25735;48.122;11.422;2022-10-30T16:30:16;11.98;;;3.67;;
40044;SDS011;25735;48.122;11.422;2022-10-30T16:32:43;9.70;;;4.88;;
40044;SDS011;25735;48.122;11.422;2022-10-30T16:35:16;12.25;;;3.90;;
40044;SDS011;25735;48.122;11.422;2022-10-30T16:37:43;10.65;;;4.00;;
40044;SDS011;25735;48.122;11.422;2022-10-30T16:40:11;14.43;;;4.72;;
40044;SDS011;25735;48.122;11.422;2022-10-30T16:42:39;10.55;;;6.15;;
40044;SDS011;25735;48.122;11.422;2022-10-30T16:47:39;11.30;;;4.13;;
40044;SDS011;25735;48.122;11.422;2022-10-30T16:50:09;12.40;;;4.25;;
40044;SDS011;25735;48.122;11.422;2022-10-30T16:52:38;11.55;;;4.90;;
40044;SDS011;25735;48.122;11.422;2022-10-30T16:55:04;9.98;;;5.50;;
40044;SDS011;25735;48.122;11.422;2022-10-30T16:57:31;16.02;;;5.70;;
40044;SDS011;25735;48.122;11.422;2022-10-30T17:00:00;11.90;;;5.65;;
40044;SDS011;25735;48.122;11.422;2022-10-30T17:02:32;7.15;;;4.93;;
40044;SDS011;25735;48.122;11.422;2022-10-30T17:05:10;15.27;;;6.07;;
40044;SDS011;25735;48.122;11.422;2022-10-30T17:07:55;14.43;;;5.30;;